Brainerd, MN (56401)

4:59 PM CDT on July 27, 2016 (GMT -0500)
Northeast Brainerd | | Change Station

Elev 1249 ft 46.37 °N, 94.18 °W | Updated 31 seconds ago

Mostly Cloudy
Mostly Cloudy
69.5 °F
Feels Like 69.5 °F
N
0.0
Wind Variable Wind from North
Gusts 0.0 mph

Today
High -- | Low -- °F
--% Chance of Precip.
Yesterday
High -- | Low -- °F
Precip. -- in
Pressure 30.01 in
Visibility 10.0 miles
Clouds Few 1600 ft
Scattered Clouds 2400 ft
Mostly Cloudy 3500 ft
Dew Point 67 °F
Humidity 92%
Rainfall 0.36 in
Snow Depth Not available.
5:52 AM 8:52 PM
Last Quarter, 39% visible
METAR KBRD 272153Z AUTO 05009KT 10SM FEW016 SCT024 BKN035 22/19 A3001 RMK AO2 RAE43 SLP160 P0019 T02170189
Pressure 30.01 in
Visibility 10.0 miles
Clouds Few 1600 ft
Scattered Clouds 2400 ft
Mostly Cloudy 3500 ft
Dew Point 67 °F
Humidity 92%
Rainfall 0.36 in
Snow Depth Not available.
5:52 AM 8:52 PM
Last Quarter, 39% visible
METAR KBRD 272153Z AUTO 05009KT 10SM FEW016 SCT024 BKN035 22/19 A3001 RMK AO2 RAE43 SLP160 P0019 T02170189

10-Day Weather Forecast

Almanac

Astronomy

Jul. 27, 2016 Rise Set
Actual Time
Civil Twilight
Nautical Twilight
Astronomical Twilight
Moon
Length of Visible Light
Length of Day
Tomorrow will be .
, % of the Moon is Illuminated

Today's Extremes

State Highs State Lows

Community

WunderPhotos

Upload Photos

1,927,944 photos uploaded!

WunderBlog® & News

Nearby

Air Quality

  Air Quality AQ Index Pollutant
Not available.

Snow Depth

Station Depth Elevation

Earthquake Activity

City Distance Mag. Time & Date
Minimum magnitude displayed is 2.5.

Coastal Water Temperatures

Place Temperature

Stations

Nearby Weather Stations

Station Location Temp. Windchill Dew Point Humidity Wind Precip. Elev Updated Type
                   

Watches & Warnings

There are currently no watches in effect.